createdAt,value
2017-10-29T00:00:11.391Z,985.59
2017-10-29T00:01:10.302Z,985.50
2017-10-29T00:02:10.300Z,985.42
2017-10-29T00:03:10.298Z,985.38
2017-10-29T00:04:10.296Z,985.35
2017-10-29T00:05:10.292Z,985.20
2017-10-29T00:06:10.292Z,985.22
2017-10-29T00:07:10.297Z,985.21
2017-10-29T00:08:10.286Z,985.21
2017-10-29T00:09:10.284Z,985.18
2017-10-29T00:10:10.284Z,985.19
2017-10-29T00:11:10.280Z,985.18
2017-10-29T00:12:10.277Z,985.15
2017-10-29T00:13:10.275Z,985.15
2017-10-29T00:14:10.277Z,985.10
2017-10-29T00:15:10.274Z,985.04
2017-10-29T00:16:10.270Z,985.00
2017-10-29T00:17:10.265Z,984.99
2017-10-29T00:18:10.272Z,984.90
2017-10-29T00:19:10.275Z,984.80
2017-10-29T00:20:10.279Z,984.80
2017-10-29T00:21:10.257Z,984.81
2017-10-29T00:22:10.254Z,984.77
2017-10-29T00:23:10.253Z,984.75
2017-10-29T00:24:10.252Z,984.64
2017-10-29T00:25:10.262Z,984.62
2017-10-29T00:26:10.251Z,984.47
2017-10-29T00:27:10.245Z,984.40
2017-10-29T00:28:10.242Z,984.43
2017-10-29T00:29:10.812Z,984.43
2017-10-29T00:30:10.239Z,984.38
2017-10-29T00:31:10.243Z,984.32
2017-10-29T00:32:10.901Z,984.25
2017-10-29T00:33:10.232Z,984.19
2017-10-29T00:34:10.230Z,984.11
2017-10-29T00:35:10.228Z,984.05
2017-10-29T00:36:10.232Z,984.07
2017-10-29T00:37:10.230Z,984.01
2017-10-29T00:38:10.222Z,983.92
2017-10-29T00:39:10.225Z,983.86
2017-10-29T00:40:10.225Z,983.91
2017-10-29T00:41:10.216Z,983.83
2017-10-29T00:42:10.212Z,983.83
2017-10-29T00:43:10.212Z,983.83
2017-10-29T00:44:10.209Z,983.74
2017-10-29T00:45:10.208Z,983.63
2017-10-29T00:46:10.208Z,983.64
2017-10-29T00:47:10.203Z,983.69
2017-10-29T00:48:10.214Z,983.62
2017-10-29T00:49:10.203Z,983.58
2017-10-29T00:50:10.195Z,983.64
2017-10-29T00:51:10.194Z,983.58
2017-10-29T00:52:10.192Z,983.58
2017-10-29T00:53:10.191Z,983.50
2017-10-29T00:54:10.188Z,983.42
2017-10-29T00:55:10.185Z,983.43
2017-10-29T00:56:10.184Z,983.35
2017-10-29T00:57:10.181Z,983.41
2017-10-29T00:58:10.180Z,983.38
2017-10-29T00:59:10.185Z,983.34
2017-10-29T01:00:10.181Z,983.19
2017-10-29T01:01:10.173Z,983.22
2017-10-29T01:02:10.173Z,983.16
2017-10-29T01:03:10.170Z,983.16
2017-10-29T01:04:10.169Z,983.18
2017-10-29T01:05:10.166Z,983.11
2017-10-29T01:06:10.165Z,983.13
2017-10-29T01:07:10.163Z,983.09
2017-10-29T01:08:10.162Z,983.11
2017-10-29T01:09:10.158Z,983.08
2017-10-29T01:10:10.157Z,983.00
2017-10-29T01:11:10.165Z,982.92
2017-10-29T01:12:10.154Z,982.92
2017-10-29T01:13:10.151Z,982.90
2017-10-29T01:14:10.151Z,982.97
2017-10-29T01:15:10.148Z,982.86
2017-10-29T01:16:10.147Z,982.79
2017-10-29T01:17:10.148Z,982.73
2017-10-29T01:18:10.150Z,982.69
2017-10-29T01:19:10.144Z,982.70
2017-10-29T01:20:10.145Z,982.75
2017-10-29T01:21:10.137Z,982.65
2017-10-29T01:22:10.135Z,982.58
2017-10-29T01:23:10.134Z,982.54
2017-10-29T01:24:10.135Z,982.52
2017-10-29T01:25:10.130Z,982.49
2017-10-29T01:26:10.129Z,982.38
2017-10-29T01:27:10.128Z,982.34
2017-10-29T01:28:10.129Z,982.30
2017-10-29T01:29:10.135Z,982.27
2017-10-29T01:30:10.123Z,982.25
2017-10-29T01:31:10.121Z,982.21
2017-10-29T01:32:10.120Z,982.19
2017-10-29T01:33:10.130Z,982.13
2017-10-29T01:34:10.120Z,982.07
2017-10-29T01:35:10.115Z,982.04
2017-10-29T01:36:10.114Z,981.98
2017-10-29T01:37:10.110Z,981.96
2017-10-29T01:38:10.111Z,981.96
2017-10-29T01:39:10.110Z,981.98
2017-10-29T01:40:10.118Z,981.92
2017-10-29T01:41:10.104Z,981.88
2017-10-29T01:42:10.103Z,981.94
2017-10-29T01:43:10.102Z,981.90
2017-10-29T01:44:10.103Z,981.83
2017-10-29T01:45:10.101Z,981.80
2017-10-29T01:46:10.097Z,981.79
2017-10-29T01:47:10.096Z,981.69
2017-10-29T01:48:10.096Z,981.63
2017-10-29T01:49:10.096Z,981.77
2017-10-29T01:50:10.090Z,981.60
2017-10-29T01:51:10.090Z,981.51
2017-10-29T01:52:10.091Z,981.51
2017-10-29T01:53:10.087Z,981.52
2017-10-29T01:54:10.083Z,981.44
2017-10-29T01:55:10.083Z,981.39
2017-10-29T01:56:10.085Z,981.45
2017-10-29T01:57:10.087Z,981.42
2017-10-29T01:58:10.089Z,981.38
2017-10-29T01:59:10.076Z,981.30
2017-10-29T02:00:10.080Z,981.21
2017-10-29T02:01:10.073Z,981.17
2017-10-29T02:02:10.072Z,981.12
2017-10-29T02:03:10.135Z,981.13
2017-10-29T02:04:10.068Z,981.11
2017-10-29T02:05:10.068Z,981.09
2017-10-29T02:06:10.067Z,981.04
2017-10-29T02:07:10.065Z,981.00
2017-10-29T02:08:10.063Z,981.01
2017-10-29T02:09:10.062Z,980.92
2017-10-29T02:10:10.062Z,980.87
2017-10-29T02:11:10.058Z,980.91
2017-10-29T02:12:10.058Z,980.82
2017-10-29T02:13:10.054Z,980.81
2017-10-29T02:14:10.073Z,980.79
2017-10-29T02:15:10.053Z,980.76
2017-10-29T02:16:10.050Z,980.75
2017-10-29T02:17:10.047Z,980.67
2017-10-29T02:18:10.046Z,980.62
2017-10-29T02:19:10.046Z,980.61
2017-10-29T02:20:10.044Z,980.59
2017-10-29T02:21:10.041Z,980.55
2017-10-29T02:22:10.040Z,980.41
2017-10-29T02:23:10.044Z,980.34
2017-10-29T02:24:10.037Z,980.34
2017-10-29T02:25:10.034Z,980.30
2017-10-29T02:26:10.034Z,980.32
2017-10-29T02:27:10.034Z,980.33
2017-10-29T02:28:10.044Z,980.32
2017-10-29T02:29:10.028Z,980.24
2017-10-29T02:30:10.027Z,980.21
2017-10-29T02:31:10.028Z,980.16
2017-10-29T02:32:10.372Z,980.13
2017-10-29T02:33:10.195Z,980.04
2017-10-29T02:34:10.021Z,980.01
2017-10-29T02:35:10.180Z,980.00
2017-10-29T02:36:10.232Z,979.87
2017-10-29T02:37:10.053Z,979.88
2017-10-29T02:38:10.015Z,979.92
2017-10-29T02:39:10.022Z,979.85
2017-10-29T02:40:10.194Z,979.72
2017-10-29T02:41:10.072Z,979.78
2017-10-29T02:42:10.014Z,979.69
2017-10-29T02:43:10.040Z,979.59
2017-10-29T02:44:10.009Z,979.65
2017-10-29T02:45:10.004Z,979.61
2017-10-29T02:46:10.003Z,979.54
2017-10-29T02:47:10.005Z,979.54
2017-10-29T02:48:09.999Z,979.47
2017-10-29T02:49:09.998Z,979.34
2017-10-29T02:50:09.996Z,979.35
2017-10-29T02:51:09.994Z,979.27
2017-10-29T02:52:09.994Z,979.22
2017-10-29T02:53:09.991Z,979.19
2017-10-29T02:54:09.997Z,979.15
2017-10-29T02:55:09.990Z,979.10
2017-10-29T02:56:09.991Z,979.04
2017-10-29T02:57:09.985Z,978.97
2017-10-29T02:58:09.985Z,978.78
2017-10-29T02:59:09.983Z,978.71
2017-10-29T03:00:09.981Z,978.77
2017-10-29T03:01:09.982Z,978.71
2017-10-29T03:02:09.977Z,978.65
2017-10-29T03:03:10.750Z,978.56
2017-10-29T03:04:09.985Z,978.62
2017-10-29T03:05:09.974Z,978.59
2017-10-29T03:06:09.970Z,978.73
2017-10-29T03:07:09.969Z,978.68
2017-10-29T03:08:09.972Z,978.67
2017-10-29T03:09:09.967Z,978.74
2017-10-29T03:10:09.965Z,978.63
2017-10-29T03:11:09.970Z,978.61
2017-10-29T03:12:09.961Z,978.60
2017-10-29T03:13:09.961Z,978.64
2017-10-29T03:14:09.959Z,978.58
2017-10-29T03:15:09.958Z,978.50
2017-10-29T03:16:09.959Z,978.56
2017-10-29T03:17:09.953Z,978.58
2017-10-29T03:18:09.952Z,978.54
2017-10-29T03:19:09.951Z,978.52
2017-10-29T03:20:09.953Z,978.57
2017-10-29T03:21:09.946Z,978.53
2017-10-29T03:22:09.945Z,978.54
2017-10-29T03:23:09.944Z,978.58
2017-10-29T03:24:09.945Z,978.55
2017-10-29T03:25:09.940Z,978.53
2017-10-29T03:26:09.939Z,978.55
2017-10-29T03:27:09.938Z,978.55
2017-10-29T03:28:09.938Z,978.54
2017-10-29T03:29:09.935Z,978.60
2017-10-29T03:30:09.939Z,978.43
2017-10-29T03:31:09.934Z,978.40
2017-10-29T03:32:09.932Z,978.42
2017-10-29T03:33:09.931Z,978.39
2017-10-29T03:34:09.927Z,978.37
2017-10-29T03:35:09.926Z,978.37
2017-10-29T03:36:09.924Z,978.42
2017-10-29T03:37:09.921Z,978.44
2017-10-29T03:38:09.921Z,978.44
2017-10-29T03:39:09.949Z,978.45
2017-10-29T03:40:09.920Z,978.41
2017-10-29T03:41:09.916Z,978.35
2017-10-29T03:42:09.916Z,978.24
2017-10-29T03:43:09.920Z,978.15
2017-10-29T03:44:09.913Z,978.15
2017-10-29T03:45:09.911Z,978.14
2017-10-29T03:46:09.919Z,978.25
2017-10-29T03:47:09.908Z,978.32
2017-10-29T03:48:09.907Z,978.28
2017-10-29T03:49:09.904Z,978.27
2017-10-29T03:50:09.904Z,978.30
2017-10-29T03:51:09.903Z,978.22
2017-10-29T03:52:09.900Z,978.19
2017-10-29T03:53:09.900Z,978.37
2017-10-29T03:54:09.896Z,978.39
2017-10-29T03:55:09.901Z,978.42
2017-10-29T03:56:09.894Z,978.50
2017-10-29T03:57:09.893Z,978.50
2017-10-29T03:58:09.893Z,978.40
2017-10-29T03:59:09.888Z,978.56
2017-10-29T04:00:09.886Z,978.55
2017-10-29T04:01:09.884Z,978.60
2017-10-29T04:02:09.884Z,978.50
2017-10-29T04:03:09.882Z,978.49
2017-10-29T04:04:09.880Z,978.50
2017-10-29T04:05:09.878Z,978.43
2017-10-29T04:06:09.876Z,978.20
2017-10-29T04:07:09.874Z,978.55
2017-10-29T04:08:09.873Z,978.55
2017-10-29T04:09:09.872Z,978.72
2017-10-29T04:10:09.874Z,978.79
2017-10-29T04:11:09.867Z,978.75
2017-10-29T04:12:09.866Z,978.80
2017-10-29T04:13:09.864Z,978.74
2017-10-29T04:14:09.869Z,978.73
2017-10-29T04:15:09.860Z,978.79
2017-10-29T04:16:09.859Z,978.81
2017-10-29T04:17:09.856Z,978.80
2017-10-29T04:18:33.791Z,978.86
2017-10-29T04:19:09.853Z,978.73
2017-10-29T04:20:09.852Z,978.70
2017-10-29T04:21:09.850Z,978.70
2017-10-29T04:22:09.851Z,978.58
2017-10-29T04:23:09.845Z,978.57
2017-10-29T04:24:09.843Z,978.49
2017-10-29T04:25:09.842Z,978.63
2017-10-29T04:26:09.838Z,978.58
2017-10-29T04:27:09.836Z,978.68
2017-10-29T04:28:09.835Z,978.68
2017-10-29T04:29:09.834Z,978.65
2017-10-29T04:30:09.830Z,978.56
2017-10-29T04:31:09.834Z,978.50
2017-10-29T04:32:09.837Z,978.47
2017-10-29T04:33:09.825Z,978.49
2017-10-29T04:34:09.823Z,978.62
2017-10-29T04:35:09.908Z,978.54
2017-10-29T04:36:09.822Z,978.56
2017-10-29T04:37:09.817Z,978.60
2017-10-29T04:38:09.815Z,978.55
2017-10-29T04:39:09.813Z,978.61
2017-10-29T04:40:09.812Z,978.50
2017-10-29T04:41:09.825Z,978.56
2017-10-29T04:42:09.810Z,978.51
2017-10-29T04:43:09.805Z,978.55
2017-10-29T04:44:09.814Z,978.67
2017-10-29T04:45:09.803Z,978.74
2017-10-29T04:46:09.800Z,978.69
2017-10-29T04:47:09.797Z,978.74
2017-10-29T04:48:09.795Z,978.74
2017-10-29T04:49:09.796Z,978.75
2017-10-29T04:50:09.793Z,978.80
2017-10-29T04:51:09.789Z,978.80
2017-10-29T04:52:09.789Z,978.83
2017-10-29T04:53:09.790Z,978.86
2017-10-29T04:54:09.782Z,978.83
2017-10-29T04:55:09.781Z,978.91
2017-10-29T04:56:09.779Z,979.03
2017-10-29T04:57:09.778Z,979.13
2017-10-29T04:58:09.777Z,979.26
2017-10-29T04:59:09.775Z,979.20
2017-10-29T05:00:09.773Z,979.40
2017-10-29T05:01:09.769Z,979.26
2017-10-29T05:02:09.766Z,979.27
2017-10-29T05:03:09.767Z,979.23
2017-10-29T05:04:09.763Z,979.18
2017-10-29T05:05:09.761Z,979.26
2017-10-29T05:06:10.311Z,979.22
2017-10-29T05:07:09.759Z,979.13
2017-10-29T05:08:09.756Z,979.25
2017-10-29T05:09:09.751Z,979.13
2017-10-29T05:10:09.750Z,979.23
2017-10-29T05:11:09.748Z,979.49
2017-10-29T05:12:09.748Z,979.39
2017-10-29T05:13:09.745Z,979.48
2017-10-29T05:14:09.742Z,979.58
2017-10-29T05:15:09.739Z,979.64
2017-10-29T05:16:09.740Z,979.57
2017-10-29T05:17:09.735Z,979.68
2017-10-29T05:18:09.734Z,979.66
2017-10-29T05:19:09.731Z,979.54
2017-10-29T05:20:09.734Z,979.60
2017-10-29T05:21:09.734Z,979.62
2017-10-29T05:22:09.727Z,979.64
2017-10-29T05:23:09.727Z,979.60
2017-10-29T05:24:09.722Z,979.46
2017-10-29T05:25:09.719Z,979.48
2017-10-29T05:26:09.719Z,979.44
2017-10-29T05:27:09.717Z,979.50
2017-10-29T05:28:09.717Z,979.56
2017-10-29T05:29:09.711Z,979.80
2017-10-29T05:30:09.711Z,979.77
2017-10-29T05:31:09.709Z,979.91
2017-10-29T05:32:09.705Z,979.84
2017-10-29T05:33:09.707Z,979.86
2017-10-29T05:34:09.702Z,980.04
2017-10-29T05:35:09.699Z,980.13
2017-10-29T05:36:09.701Z,980.20
2017-10-29T05:37:10.689Z,980.11
2017-10-29T05:38:09.694Z,980.32
2017-10-29T05:39:09.690Z,980.21
2017-10-29T05:40:09.689Z,980.18
2017-10-29T05:41:09.686Z,980.37
2017-10-29T05:42:09.685Z,980.22
2017-10-29T05:43:09.685Z,980.25
2017-10-29T05:44:09.681Z,980.23
2017-10-29T05:45:09.678Z,980.28
2017-10-29T05:46:09.675Z,980.22
2017-10-29T05:47:09.672Z,980.32
2017-10-29T05:48:09.674Z,980.32
2017-10-29T05:49:09.671Z,980.32
2017-10-29T05:50:09.667Z,980.31
2017-10-29T05:51:09.666Z,980.27
2017-10-29T05:52:09.665Z,980.28
2017-10-29T05:53:09.659Z,980.36
2017-10-29T05:54:09.658Z,980.31
2017-10-29T05:55:09.655Z,980.34
2017-10-29T05:56:09.652Z,980.48
2017-10-29T05:57:09.651Z,980.45
2017-10-29T05:58:09.647Z,980.53
2017-10-29T05:59:09.645Z,980.51
2017-10-29T06:00:09.642Z,980.67
2017-10-29T06:01:09.642Z,980.85
2017-10-29T06:02:09.637Z,980.87
2017-10-29T06:03:09.635Z,980.96
2017-10-29T06:04:09.636Z,981.13
2017-10-29T06:05:09.630Z,981.28
2017-10-29T06:06:09.630Z,980.59
2017-10-29T06:07:09.630Z,980.78
2017-10-29T06:08:09.622Z,980.98
2017-10-29T06:09:09.620Z,981.07
2017-10-29T06:10:09.619Z,981.27
2017-10-29T06:11:09.616Z,981.24
2017-10-29T06:12:09.614Z,981.30
2017-10-29T06:13:09.609Z,981.41
2017-10-29T06:14:09.606Z,981.42
2017-10-29T06:15:09.603Z,981.34
2017-10-29T06:16:09.598Z,981.37
2017-10-29T06:17:09.594Z,981.46
2017-10-29T06:18:09.596Z,981.41
2017-10-29T06:19:09.589Z,981.54
2017-10-29T06:20:09.586Z,981.79
2017-10-29T06:21:09.587Z,981.75
2017-10-29T06:22:09.578Z,981.81
2017-10-29T06:23:09.574Z,981.86
2017-10-29T06:24:09.573Z,981.84
2017-10-29T06:25:09.568Z,982.09
2017-10-29T06:26:09.562Z,981.96
2017-10-29T06:27:09.565Z,982.01
2017-10-29T06:28:09.558Z,982.16
2017-10-29T06:29:09.549Z,982.22
2017-10-29T06:30:09.547Z,982.39
2017-10-29T06:31:09.544Z,982.37
2017-10-29T06:32:09.540Z,982.41
2017-10-29T06:33:09.539Z,982.54
2017-10-29T06:34:09.531Z,982.35
2017-10-29T06:35:09.528Z,982.38
2017-10-29T06:36:09.525Z,982.46
2017-10-29T06:37:09.519Z,982.56
2017-10-29T06:38:09.515Z,982.46
2017-10-29T06:39:09.511Z,982.62
2017-10-29T06:40:09.512Z,982.49
2017-10-29T06:41:09.502Z,982.56
2017-10-29T06:42:09.499Z,982.58
2017-10-29T06:43:09.496Z,982.66
2017-10-29T06:44:09.491Z,982.64
2017-10-29T06:45:09.488Z,982.67
2017-10-29T06:46:09.483Z,982.55
2017-10-29T06:47:09.481Z,982.39
2017-10-29T06:48:09.477Z,982.39
2017-10-29T06:49:09.481Z,982.44
2017-10-29T06:50:09.469Z,982.55
2017-10-29T06:51:09.464Z,982.60
2017-10-29T06:52:09.461Z,982.63
2017-10-29T06:53:09.456Z,982.80
2017-10-29T06:54:09.453Z,982.73
2017-10-29T06:55:09.449Z,982.81
2017-10-29T06:56:09.449Z,982.69
2017-10-29T06:57:09.443Z,982.69
2017-10-29T06:58:09.437Z,982.82
2017-10-29T06:59:09.435Z,982.78
2017-10-29T07:00:09.430Z,982.84
2017-10-29T07:01:09.425Z,982.91
2017-10-29T07:02:09.423Z,982.86
2017-10-29T07:03:09.426Z,982.88
2017-10-29T07:04:09.418Z,982.88
2017-10-29T07:05:09.410Z,982.85
2017-10-29T07:06:09.408Z,982.87
2017-10-29T07:07:09.405Z,983.04
2017-10-29T07:08:09.400Z,983.05
2017-10-29T07:09:09.821Z,983.11
2017-10-29T07:10:09.393Z,983.04
2017-10-29T07:11:09.390Z,983.06
2017-10-29T07:12:09.385Z,983.28
2017-10-29T07:13:09.387Z,983.36
2017-10-29T07:14:09.377Z,983.38
2017-10-29T07:15:09.375Z,983.33
2017-10-29T07:16:09.372Z,983.39
2017-10-29T07:17:09.366Z,983.41
2017-10-29T07:18:09.363Z,983.43
2017-10-29T07:19:09.358Z,983.44
2017-10-29T07:20:09.355Z,983.51
2017-10-29T07:21:09.351Z,983.68
2017-10-29T07:22:09.349Z,983.61
2017-10-29T07:23:09.345Z,983.82
2017-10-29T07:24:09.341Z,983.81
2017-10-29T07:25:09.339Z,983.71
2017-10-29T07:26:09.333Z,983.68
2017-10-29T07:27:09.332Z,983.77
2017-10-29T07:28:09.327Z,983.89
2017-10-29T07:29:09.322Z,983.77
2017-10-29T07:30:09.317Z,983.91
2017-10-29T07:31:09.314Z,983.88
2017-10-29T07:32:09.311Z,983.92
2017-10-29T07:33:09.308Z,984.09
2017-10-29T07:34:09.305Z,984.10
2017-10-29T07:35:09.303Z,984.04
2017-10-29T07:36:09.297Z,984.04
2017-10-29T07:37:09.293Z,984.09
2017-10-29T07:38:09.291Z,984.25
2017-10-29T07:39:09.285Z,984.16
2017-10-29T07:40:10.234Z,984.26
2017-10-29T07:41:09.294Z,984.33
2017-10-29T07:42:09.274Z,984.22
2017-10-29T07:43:09.280Z,984.44
2017-10-29T07:44:09.267Z,984.38
2017-10-29T07:45:09.277Z,984.27
2017-10-29T07:46:09.262Z,984.28
2017-10-29T07:47:09.260Z,984.44
2017-10-29T07:48:09.254Z,984.31
2017-10-29T07:49:09.250Z,984.27
2017-10-29T07:50:09.246Z,984.25
2017-10-29T07:51:09.243Z,984.37
2017-10-29T07:52:09.242Z,984.34
2017-10-29T07:53:09.235Z,984.39
2017-10-29T07:54:09.233Z,984.46
2017-10-29T07:55:09.233Z,984.49
2017-10-29T07:56:09.227Z,984.50
2017-10-29T07:57:09.223Z,984.60
2017-10-29T07:58:09.220Z,984.42
2017-10-29T07:59:09.217Z,984.48
2017-10-29T08:00:09.214Z,984.60
2017-10-29T08:01:09.219Z,984.54
2017-10-29T08:02:09.207Z,984.45
2017-10-29T08:03:09.203Z,984.44
2017-10-29T08:04:09.200Z,984.36
2017-10-29T08:05:09.197Z,984.44
2017-10-29T08:06:09.200Z,984.64
2017-10-29T08:07:09.191Z,984.56
2017-10-29T08:08:09.186Z,984.59
2017-10-29T08:09:09.183Z,984.57
2017-10-29T08:10:09.182Z,984.57
2017-10-29T08:11:09.178Z,984.50
2017-10-29T08:12:09.175Z,984.66
2017-10-29T08:13:09.172Z,984.62
2017-10-29T08:14:09.168Z,984.66
2017-10-29T08:15:09.164Z,984.65
2017-10-29T08:16:09.162Z,984.76
2017-10-29T08:17:09.160Z,984.67
2017-10-29T08:18:09.156Z,984.64
2017-10-29T08:19:09.155Z,984.68
2017-10-29T08:20:09.149Z,984.76
2017-10-29T08:21:09.146Z,984.85
2017-10-29T08:22:09.143Z,984.79
2017-10-29T08:23:09.139Z,984.78
2017-10-29T08:24:09.136Z,984.89
2017-10-29T08:25:09.131Z,984.96
2017-10-29T08:26:09.128Z,985.04
2017-10-29T08:27:09.125Z,984.99
2017-10-29T08:28:09.123Z,985.01
2017-10-29T08:29:09.122Z,985.01
2017-10-29T08:30:09.117Z,984.91
2017-10-29T08:31:09.114Z,985.14
2017-10-29T08:32:09.111Z,985.09
2017-10-29T08:33:09.111Z,985.01
2017-10-29T08:34:09.103Z,985.03
2017-10-29T08:35:09.101Z,984.97
2017-10-29T08:36:09.099Z,985.14
2017-10-29T08:37:09.096Z,985.21
2017-10-29T08:38:09.091Z,985.08
2017-10-29T08:39:09.090Z,985.08
2017-10-29T08:40:09.092Z,985.09
2017-10-29T08:41:09.083Z,985.21
2017-10-29T08:42:09.080Z,985.14
2017-10-29T08:43:09.078Z,985.27
2017-10-29T08:44:09.076Z,985.26
2017-10-29T08:45:09.071Z,985.28
2017-10-29T08:46:09.067Z,985.33
2017-10-29T08:47:09.073Z,985.38
2017-10-29T08:48:09.063Z,985.44
2017-10-29T08:49:09.062Z,985.32
2017-10-29T08:50:09.059Z,985.39
2017-10-29T08:51:09.056Z,985.55
2017-10-29T08:52:09.052Z,985.44
2017-10-29T08:53:09.049Z,985.33
2017-10-29T08:54:09.048Z,985.45
2017-10-29T08:55:09.046Z,985.53
2017-10-29T08:56:09.040Z,985.49
2017-10-29T08:57:09.039Z,985.54
2017-10-29T08:58:09.037Z,985.58
2017-10-29T08:59:09.034Z,985.69
2017-10-29T09:00:09.031Z,985.69
2017-10-29T09:01:09.028Z,985.75
2017-10-29T09:02:09.027Z,985.82
2017-10-29T09:03:09.022Z,985.82
2017-10-29T09:04:09.020Z,985.79
2017-10-29T09:05:09.017Z,985.82
2017-10-29T09:06:09.014Z,985.82
2017-10-29T09:07:09.012Z,985.87
2017-10-29T09:08:09.010Z,986.01
2017-10-29T09:09:09.007Z,985.91
2017-10-29T09:10:09.005Z,985.97
2017-10-29T09:11:09.006Z,985.97
2017-10-29T09:12:09.382Z,986.06
2017-10-29T09:13:08.997Z,986.01
2017-10-29T09:14:08.994Z,986.09
2017-10-29T09:15:08.992Z,986.02
2017-10-29T09:16:08.990Z,986.12
2017-10-29T09:17:08.987Z,986.15
2017-10-29T09:18:08.985Z,986.22
2017-10-29T09:19:08.983Z,986.12
2017-10-29T09:20:08.983Z,986.10
2017-10-29T09:21:08.977Z,986.02
2017-10-29T09:22:08.976Z,986.04
2017-10-29T09:23:08.975Z,986.08
2017-10-29T09:24:08.970Z,986.04
2017-10-29T09:25:08.973Z,986.14
2017-10-29T09:26:08.966Z,986.09
2017-10-29T09:27:08.967Z,986.23
2017-10-29T09:28:08.968Z,986.10
2017-10-29T09:29:08.960Z,986.18
2017-10-29T09:30:08.978Z,986.20
2017-10-29T09:31:08.962Z,986.25
2017-10-29T09:32:08.956Z,986.33
2017-10-29T09:33:08.950Z,986.39
2017-10-29T09:34:08.947Z,986.53
2017-10-29T09:35:08.948Z,986.48
2017-10-29T09:36:08.943Z,986.44
2017-10-29T09:37:08.939Z,986.53
2017-10-29T09:38:08.937Z,986.50
2017-10-29T09:39:08.941Z,986.58
2017-10-29T09:40:08.933Z,986.44
2017-10-29T09:41:08.930Z,986.56
2017-10-29T09:42:08.929Z,986.69
2017-10-29T09:43:09.760Z,986.67
2017-10-29T09:44:08.923Z,986.64
2017-10-29T09:45:08.921Z,986.74
2017-10-29T09:46:08.919Z,986.78
2017-10-29T09:47:08.916Z,986.76
2017-10-29T09:48:08.915Z,986.80
2017-10-29T09:49:08.926Z,986.95
2017-10-29T09:50:08.923Z,986.85
2017-10-29T09:51:08.908Z,986.80
2017-10-29T09:52:08.906Z,986.86
2017-10-29T09:53:08.903Z,986.91
2017-10-29T09:54:08.900Z,986.95
2017-10-29T09:55:08.900Z,987.00
2017-10-29T09:56:08.898Z,987.02
2017-10-29T09:57:08.894Z,987.13
2017-10-29T09:58:08.890Z,987.17
2017-10-29T09:59:08.891Z,987.38
2017-10-29T10:00:08.886Z,987.29
2017-10-29T10:01:08.884Z,987.35
2017-10-29T10:02:08.882Z,987.34
2017-10-29T10:03:08.878Z,987.38
2017-10-29T10:04:08.877Z,987.30
2017-10-29T10:05:08.876Z,987.40
2017-10-29T10:06:08.872Z,987.28
2017-10-29T10:07:08.869Z,987.23
2017-10-29T10:08:08.867Z,987.30
2017-10-29T10:09:08.870Z,987.34
2017-10-29T10:10:08.863Z,987.26
2017-10-29T10:11:08.859Z,987.37
2017-10-29T10:12:08.858Z,987.47
2017-10-29T10:13:08.858Z,987.58
2017-10-29T10:14:08.852Z,987.45
2017-10-29T10:15:08.883Z,987.62
2017-10-29T10:16:08.851Z,987.65
2017-10-29T10:17:08.845Z,987.58
2017-10-29T10:18:08.843Z,987.78
2017-10-29T10:19:08.841Z,987.86
2017-10-29T10:20:08.838Z,987.93
2017-10-29T10:21:08.844Z,987.85
2017-10-29T10:22:08.833Z,987.85
2017-10-29T10:23:08.831Z,987.82
2017-10-29T10:24:08.831Z,987.71
2017-10-29T10:25:08.826Z,987.95
2017-10-29T10:26:08.824Z,987.89
2017-10-29T10:27:08.822Z,987.73
2017-10-29T10:28:08.831Z,988.11
2017-10-29T10:29:08.819Z,988.22
2017-10-29T10:30:08.816Z,988.23
2017-10-29T10:31:08.816Z,988.23
2017-10-29T10:32:08.812Z,988.28
2017-10-29T10:33:08.808Z,988.02
2017-10-29T10:34:08.807Z,988.05
2017-10-29T10:35:08.805Z,988.03
2017-10-29T10:36:08.803Z,987.91
2017-10-29T10:37:08.803Z,987.89
2017-10-29T10:38:08.796Z,987.98
2017-10-29T10:39:08.794Z,988.01
2017-10-29T10:40:08.807Z,988.08
2017-10-29T10:41:08.789Z,988.18
2017-10-29T10:42:08.788Z,988.35
2017-10-29T10:43:08.781Z,988.38
2017-10-29T10:44:08.779Z,988.22
2017-10-29T10:45:08.779Z,988.21
2017-10-29T10:46:08.775Z,988.11
2017-10-29T10:47:08.772Z,988.28
2017-10-29T10:48:08.769Z,988.34
2017-10-29T10:49:08.766Z,988.20
2017-10-29T10:50:08.763Z,988.35
2017-10-29T10:51:08.760Z,988.43
2017-10-29T10:52:08.758Z,988.46
2017-10-29T10:53:08.783Z,988.58
2017-10-29T10:54:08.751Z,988.38
2017-10-29T10:55:08.751Z,988.34
2017-10-29T10:56:08.747Z,988.48
2017-10-29T10:57:08.742Z,988.51
2017-10-29T10:58:08.739Z,988.49
2017-10-29T10:59:08.739Z,988.50
2017-10-29T11:00:08.734Z,988.41
2017-10-29T11:01:08.731Z,988.54
2017-10-29T11:02:08.728Z,988.61
2017-10-29T11:03:08.724Z,988.56
2017-10-29T11:04:08.722Z,988.55
2017-10-29T11:05:08.718Z,988.55
2017-10-29T11:06:08.717Z,988.67
2017-10-29T11:07:08.711Z,988.79
2017-10-29T11:08:08.712Z,988.83
2017-10-29T11:09:08.705Z,988.79
2017-10-29T11:10:08.703Z,988.74
2017-10-29T11:11:08.701Z,988.76
2017-10-29T11:12:08.732Z,988.77
2017-10-29T11:13:08.692Z,988.73
2017-10-29T11:14:08.695Z,988.83
2017-10-29T11:15:08.916Z,988.88
2017-10-29T11:16:08.690Z,989.11
2017-10-29T11:17:08.683Z,989.22
2017-10-29T11:18:08.681Z,989.43
2017-10-29T11:19:08.677Z,989.54
2017-10-29T11:20:08.682Z,989.70
2017-10-29T11:21:08.669Z,989.44
2017-10-29T11:22:08.669Z,989.52
2017-10-29T11:23:08.667Z,989.42
2017-10-29T11:24:08.663Z,989.27
2017-10-29T11:25:08.659Z,989.39
2017-10-29T11:26:08.659Z,989.54
2017-10-29T11:27:08.653Z,989.60
2017-10-29T11:28:08.648Z,989.50
2017-10-29T11:29:08.655Z,989.50
2017-10-29T11:30:08.641Z,989.38
2017-10-29T11:31:08.636Z,989.47
2017-10-29T11:32:08.633Z,989.55
2017-10-29T11:33:08.629Z,989.64
2017-10-29T11:34:08.630Z,989.57
2017-10-29T11:35:08.623Z,989.65
2017-10-29T11:36:08.626Z,989.72
2017-10-29T11:37:08.617Z,989.71
2017-10-29T11:38:08.611Z,989.63
2017-10-29T11:39:08.608Z,989.55
2017-10-29T11:40:08.607Z,989.57
2017-10-29T11:41:08.600Z,989.59
2017-10-29T11:42:08.594Z,989.52
2017-10-29T11:43:08.593Z,989.57
2017-10-29T11:44:08.588Z,989.58
2017-10-29T11:45:08.584Z,989.62
2017-10-29T11:46:09.318Z,989.63
2017-10-29T11:47:08.579Z,989.58
2017-10-29T11:48:08.574Z,989.50
2017-10-29T11:49:08.568Z,989.66
2017-10-29T11:50:08.567Z,989.62
2017-10-29T11:51:08.562Z,989.75
2017-10-29T11:52:08.566Z,989.73
2017-10-29T11:53:08.558Z,989.76
2017-10-29T11:54:08.556Z,989.78
2017-10-29T11:55:08.547Z,989.74
2017-10-29T11:56:08.561Z,989.76
2017-10-29T11:57:08.540Z,989.74
2017-10-29T11:58:08.539Z,989.83
2017-10-29T11:59:08.533Z,989.90
2017-10-29T12:00:08.530Z,989.95
2017-10-29T12:01:08.526Z,989.87
2017-10-29T12:02:08.522Z,989.85
2017-10-29T12:03:08.520Z,989.83
2017-10-29T12:04:08.515Z,989.88
2017-10-29T12:05:08.513Z,989.99
2017-10-29T12:06:08.509Z,990.10
2017-10-29T12:07:08.503Z,989.99
2017-10-29T12:08:08.503Z,989.97
2017-10-29T12:09:08.498Z,989.97
2017-10-29T12:10:08.495Z,990.01
2017-10-29T12:11:08.491Z,989.92
2017-10-29T12:12:08.487Z,989.95
2017-10-29T12:13:08.485Z,989.95
2017-10-29T12:14:08.483Z,989.96
2017-10-29T12:15:08.478Z,990.01
2017-10-29T12:16:08.476Z,990.02
2017-10-29T12:17:08.469Z,989.93
2017-10-29T12:18:08.467Z,989.86
2017-10-29T12:19:08.465Z,990.04
2017-10-29T12:20:08.462Z,990.23
2017-10-29T12:21:08.458Z,990.18
2017-10-29T12:22:08.454Z,990.24
2017-10-29T12:23:08.452Z,990.28
2017-10-29T12:24:08.451Z,990.20
2017-10-29T12:25:08.446Z,990.33
2017-10-29T12:26:08.443Z,990.36
2017-10-29T12:27:08.438Z,990.38
2017-10-29T12:28:08.441Z,990.19